createdAt,value
2018-04-15T00:01:47.796Z,77.95
2018-04-15T00:04:16.083Z,72.23
2018-04-15T00:06:44.357Z,76.60
2018-04-15T00:09:12.678Z,71.17
2018-04-15T00:11:41.723Z,78.70
2018-04-15T00:14:10.021Z,70.77
2018-04-15T00:16:40.976Z,77.93
2018-04-15T00:19:11.172Z,72.37
2018-04-15T00:21:39.438Z,74.13
2018-04-15T00:24:07.693Z,79.93
2018-04-15T00:26:35.996Z,76.73
2018-04-15T00:29:04.259Z,81.43
2018-04-15T00:31:32.545Z,73.53
2018-04-15T00:34:00.877Z,70.07
2018-04-15T00:36:29.153Z,78.33
2018-04-15T00:38:58.575Z,84.23
2018-04-15T00:41:26.830Z,82.40
2018-04-15T00:43:55.148Z,79.57
2018-04-15T00:46:23.429Z,82.53
2018-04-15T00:48:51.728Z,85.30
2018-04-15T00:51:19.990Z,78.67
2018-04-15T00:54:01.487Z,78.63
2018-04-15T00:56:29.774Z,74.37
2018-04-15T00:58:58.128Z,78.37
2018-04-15T01:01:26.479Z,78.70
2018-04-15T01:03:54.791Z,82.40
2018-04-15T01:06:23.044Z,84.77
2018-04-15T01:08:51.385Z,77.67
2018-04-15T01:11:19.674Z,81.83
2018-04-15T01:13:47.934Z,86.53
2018-04-15T01:16:17.094Z,85.77
2018-04-15T01:18:45.390Z,75.00
2018-04-15T01:21:14.419Z,70.73
2018-04-15T01:23:42.713Z,108.57
2018-04-15T01:26:11.009Z,72.27
2018-04-15T01:28:39.270Z,80.37
2018-04-15T01:31:07.549Z,76.90
2018-04-15T01:33:35.885Z,91.60
2018-04-15T01:36:04.942Z,77.07
2018-04-15T01:38:33.219Z,78.12
2018-04-15T01:41:01.475Z,89.03
2018-04-15T01:43:29.753Z,87.53
2018-04-15T01:45:58.019Z,90.57
2018-04-15T01:48:26.461Z,82.20
2018-04-15T01:50:55.496Z,74.93
2018-04-15T01:53:23.798Z,92.30
2018-04-15T01:55:52.180Z,75.00
2018-04-15T01:58:20.453Z,83.03
2018-04-15T02:00:48.765Z,79.43
2018-04-15T02:03:17.036Z,75.67
2018-04-15T02:05:46.064Z,83.30
2018-04-15T02:08:14.314Z,81.90
2018-04-15T02:10:42.581Z,77.20
2018-04-15T02:13:11.643Z,80.23
2018-04-15T02:15:39.925Z,82.33
2018-04-15T02:18:08.181Z,78.83
2018-04-15T02:20:36.478Z,71.20
2018-04-15T02:23:04.791Z,83.60
2018-04-15T02:25:33.129Z,88.57
2018-04-15T02:28:01.438Z,92.37
2018-04-15T02:30:30.536Z,98.83
2018-04-15T02:32:58.858Z,82.00
2018-04-15T02:35:27.320Z,92.23
2018-04-15T02:37:55.627Z,88.93
2018-04-15T02:40:23.978Z,92.63
2018-04-15T02:42:52.814Z,88.83
2018-04-15T02:45:21.903Z,84.53
2018-04-15T02:47:51.007Z,81.90
2018-04-15T02:50:20.106Z,86.67
2018-04-15T02:52:50.138Z,83.60
2018-04-15T02:55:18.477Z,82.70
2018-04-15T02:57:48.290Z,83.93
2018-04-15T03:00:17.398Z,75.70
2018-04-15T03:02:46.495Z,77.90
2018-04-15T03:05:15.602Z,85.20
2018-04-15T03:07:44.680Z,83.27
2018-04-15T03:10:12.942Z,85.07
2018-04-15T03:12:41.250Z,79.13
2018-04-15T03:15:10.268Z,92.70
2018-04-15T03:17:38.608Z,81.00
2018-04-15T03:20:08.586Z,87.37
2018-04-15T03:22:36.889Z,86.00
2018-04-15T03:25:05.136Z,89.13
2018-04-15T03:27:33.426Z,94.33
2018-04-15T03:30:01.816Z,99.23
2018-04-15T03:32:30.247Z,93.90
2018-04-15T03:34:59.260Z,95.13
2018-04-15T03:37:27.546Z,95.83
2018-04-15T03:39:55.827Z,92.27
2018-04-15T03:42:24.122Z,98.20
2018-04-15T03:44:52.365Z,98.87
2018-04-15T03:47:20.651Z,83.37
2018-04-15T03:49:48.909Z,102.30
2018-04-15T03:52:17.210Z,119.10
2018-04-15T03:54:45.522Z,111.07
2018-04-15T03:57:14.577Z,123.77
2018-04-15T03:59:42.849Z,122.47
2018-04-15T04:02:11.137Z,134.33
2018-04-15T04:04:39.406Z,121.27
2018-04-15T04:07:07.775Z,123.00
2018-04-15T04:09:37.354Z,132.63
2018-04-15T04:12:05.590Z,110.07
2018-04-15T04:14:33.882Z,129.53
2018-04-15T04:17:02.898Z,123.47
2018-04-15T04:19:43.021Z,138.07
2018-04-15T04:22:23.729Z,140.37
2018-04-15T04:25:04.119Z,121.07
2018-04-15T04:27:32.390Z,124.17
2018-04-15T04:30:00.693Z,133.60
2018-04-15T04:32:28.930Z,146.47
2018-04-15T04:34:57.217Z,140.67
2018-04-15T04:37:25.492Z,123.00
2018-04-15T04:39:53.746Z,133.77
2018-04-15T04:42:22.907Z,128.73
2018-04-15T04:44:51.966Z,134.17
2018-04-15T04:47:20.242Z,130.33
2018-04-15T04:49:48.532Z,123.83
2018-04-15T04:52:16.807Z,120.30
2018-04-15T04:54:45.048Z,106.23
2018-04-15T04:57:13.339Z,113.70
2018-04-15T04:59:41.608Z,107.70
2018-04-15T05:02:09.901Z,111.13
2018-04-15T05:04:38.168Z,102.93
2018-04-15T05:07:06.456Z,109.53
2018-04-15T05:09:34.709Z,107.87
2018-04-15T05:12:02.979Z,99.60
2018-04-15T05:14:31.401Z,103.50
2018-04-15T05:17:00.241Z,104.53
2018-04-15T05:19:28.530Z,98.43
2018-04-15T05:21:56.795Z,105.53
2018-04-15T05:24:25.079Z,88.70
2018-04-15T05:26:53.396Z,84.87
2018-04-15T05:29:21.724Z,95.70
2018-04-15T05:31:49.998Z,93.17
2018-04-15T05:34:18.288Z,89.77
2018-04-15T05:36:47.334Z,97.20
2018-04-15T05:39:15.589Z,89.37
2018-04-15T05:41:43.837Z,90.00
2018-04-15T05:44:12.094Z,90.90
2018-04-15T05:46:40.405Z,90.13
2018-04-15T05:49:08.654Z,101.17
2018-04-15T05:51:36.962Z,105.30
2018-04-15T05:54:05.221Z,92.87
2018-04-15T05:56:33.506Z,96.17
2018-04-15T05:59:01.802Z,97.67
2018-04-15T06:01:30.172Z,97.20
2018-04-15T06:03:59.364Z,95.23
2018-04-15T06:06:27.756Z,93.37
2018-04-15T06:08:56.045Z,96.57
2018-04-15T06:11:24.408Z,88.27
2018-04-15T06:13:52.678Z,83.50
2018-04-15T06:16:20.997Z,85.53
2018-04-15T06:18:49.314Z,83.87
2018-04-15T06:21:17.595Z,86.67
2018-04-15T06:23:45.897Z,80.33
2018-04-15T06:26:14.162Z,73.93
2018-04-15T06:28:42.481Z,75.87
2018-04-15T06:31:10.925Z,67.90
2018-04-15T06:33:39.165Z,80.77
2018-04-15T06:36:07.456Z,82.10
2018-04-15T06:38:35.747Z,74.17
2018-04-15T06:41:04.041Z,70.57
2018-04-15T06:43:33.219Z,75.53
2018-04-15T06:46:03.049Z,71.70
2018-04-15T06:48:32.843Z,65.60
2018-04-15T06:51:01.118Z,71.17
2018-04-15T06:53:29.422Z,66.73
2018-04-15T06:55:59.667Z,70.97
2018-04-15T06:58:27.940Z,68.33
2018-04-15T07:00:56.265Z,66.13
2018-04-15T07:03:24.537Z,65.93
2018-04-15T07:05:52.833Z,76.30
2018-04-15T07:08:21.103Z,79.10
2018-04-15T07:10:49.425Z,70.87
2018-04-15T07:13:17.731Z,75.27
2018-04-15T07:15:45.971Z,70.47
2018-04-15T07:18:14.258Z,79.07
2018-04-15T07:20:42.561Z,71.70
2018-04-15T07:23:10.836Z,69.90
2018-04-15T07:25:39.235Z,72.30
2018-04-15T07:28:07.496Z,66.30
2018-04-15T07:30:35.743Z,72.80
2018-04-15T07:33:04.032Z,71.13
2018-04-15T07:35:32.330Z,68.97
2018-04-15T07:38:00.647Z,65.63
2018-04-15T07:40:29.677Z,62.40
2018-04-15T07:42:58.090Z,66.93
2018-04-15T07:45:26.375Z,67.47
2018-04-15T07:47:54.627Z,62.93
2018-04-15T07:50:22.933Z,67.00
2018-04-15T07:52:52.080Z,64.10
2018-04-15T07:55:20.369Z,71.77
2018-04-15T07:57:48.640Z,66.37
2018-04-15T08:00:16.910Z,69.87
2018-04-15T08:02:45.208Z,63.97
2018-04-15T08:05:13.478Z,69.13
2018-04-15T08:07:41.863Z,72.93
2018-04-15T08:10:10.096Z,68.90
2018-04-15T08:12:38.377Z,73.63
2018-04-15T08:15:06.701Z,67.73
2018-04-15T08:17:34.929Z,70.50
2018-04-15T08:20:03.237Z,79.13
2018-04-15T08:22:31.520Z,72.40
2018-04-15T08:24:59.804Z,79.23
2018-04-15T08:27:28.226Z,70.03
2018-04-15T08:29:58.152Z,64.20
2018-04-15T08:32:26.483Z,77.60
2018-04-15T08:34:55.539Z,67.93
2018-04-15T08:37:23.816Z,70.93
2018-04-15T08:39:52.095Z,65.63
2018-04-15T08:42:20.360Z,66.27
2018-04-15T08:44:48.644Z,67.93
2018-04-15T08:47:17.059Z,73.13
2018-04-15T08:49:45.318Z,77.93
2018-04-15T08:52:13.599Z,75.53
2018-04-15T08:54:41.911Z,71.90
2018-04-15T08:57:10.972Z,73.80
2018-04-15T08:59:39.217Z,74.23
2018-04-15T09:02:07.475Z,75.00
2018-04-15T09:04:35.804Z,76.03
2018-04-15T09:07:04.084Z,77.90
2018-04-15T09:09:32.365Z,74.00
2018-04-15T09:12:00.633Z,70.47
2018-04-15T09:14:28.905Z,74.40
2018-04-15T09:16:57.274Z,73.77
2018-04-15T09:19:25.564Z,63.65
2018-04-15T09:21:53.839Z,78.60
2018-04-15T09:24:23.645Z,80.07
2018-04-15T09:26:52.174Z,70.77
2018-04-15T09:29:20.435Z,76.60
2018-04-15T09:31:49.459Z,72.87
2018-04-15T09:34:17.775Z,71.70
2018-04-15T09:36:46.052Z,73.50
2018-04-15T09:39:14.349Z,73.57
2018-04-15T09:41:42.641Z,73.13
2018-04-15T09:44:11.660Z,77.55
2018-04-15T09:46:40.017Z,77.87
2018-04-15T09:49:09.070Z,68.43
2018-04-15T09:51:37.477Z,73.97
2018-04-15T09:54:06.554Z,73.03
2018-04-15T09:56:34.927Z,74.43
2018-04-15T09:59:03.228Z,63.50
2018-04-15T10:01:32.246Z,74.97
2018-04-15T10:04:00.572Z,69.33
2018-04-15T10:06:29.054Z,73.20
2018-04-15T10:08:57.362Z,77.47
2018-04-15T10:11:26.394Z,78.73
2018-04-15T10:13:54.705Z,78.03
2018-04-15T10:16:22.969Z,71.73
2018-04-15T10:18:52.040Z,72.97
2018-04-15T10:21:20.452Z,81.93
2018-04-15T10:23:49.872Z,74.10
2018-04-15T10:26:18.227Z,75.10
2018-04-15T10:28:46.508Z,79.57
2018-04-15T10:31:14.833Z,69.83
2018-04-15T10:33:43.133Z,72.73
2018-04-15T10:36:11.454Z,77.07
2018-04-15T10:38:39.865Z,71.73
2018-04-15T10:41:08.103Z,69.03
2018-04-15T10:43:36.480Z,65.77
2018-04-15T10:46:04.798Z,67.37
2018-04-15T10:48:33.093Z,68.63
2018-04-15T10:51:01.382Z,63.40
2018-04-15T10:53:29.669Z,62.83
2018-04-15T10:55:57.972Z,63.07
2018-04-15T10:58:26.220Z,67.73
2018-04-15T11:00:54.532Z,66.60
2018-04-15T11:03:22.793Z,63.47
2018-04-15T11:05:51.058Z,70.73
2018-04-15T11:08:19.358Z,62.13
2018-04-15T11:10:48.442Z,69.03
2018-04-15T11:13:16.696Z,65.00
2018-04-15T11:15:44.995Z,67.20
2018-04-15T11:18:13.289Z,68.77
2018-04-15T11:20:41.595Z,70.67
2018-04-15T11:23:09.911Z,72.77
2018-04-15T11:25:38.200Z,73.57
2018-04-15T11:28:06.567Z,68.10
2018-04-15T11:30:34.861Z,68.33
2018-04-15T11:33:03.120Z,69.37
2018-04-15T11:35:31.377Z,67.50
2018-04-15T11:37:59.674Z,66.37
2018-04-15T11:40:28.001Z,65.93
2018-04-15T11:42:56.268Z,69.93
2018-04-15T11:45:24.558Z,60.50
2018-04-15T11:47:52.825Z,67.27
2018-04-15T11:50:21.133Z,68.53
2018-04-15T11:52:49.405Z,60.27
2018-04-15T11:55:17.699Z,67.73
2018-04-15T11:57:46.071Z,67.13
2018-04-15T12:00:14.342Z,64.10
2018-04-15T12:02:42.640Z,65.77
2018-04-15T12:05:10.944Z,65.77
2018-04-15T12:07:39.210Z,61.17
2018-04-15T12:10:08.276Z,64.33
2018-04-15T12:12:38.492Z,62.33
2018-04-15T12:15:06.741Z,60.03
2018-04-15T12:17:35.052Z,61.07
2018-04-15T12:20:03.534Z,62.07
2018-04-15T12:22:32.693Z,60.93
2018-04-15T12:25:01.005Z,67.07
2018-04-15T12:27:29.398Z,64.03
2018-04-15T12:29:58.582Z,62.83
2018-04-15T12:32:26.899Z,66.23
2018-04-15T12:34:55.184Z,69.10
2018-04-15T12:37:23.481Z,67.90
2018-04-15T12:39:51.810Z,64.70
2018-04-15T12:42:20.639Z,68.80
2018-04-15T12:44:48.952Z,69.83
2018-04-15T12:47:17.254Z,64.07
2018-04-15T12:49:45.540Z,70.53
2018-04-15T12:52:14.604Z,60.95
2018-04-15T12:54:42.987Z,64.50
2018-04-15T12:57:11.258Z,68.43
2018-04-15T12:59:39.556Z,66.30
2018-04-15T13:02:07.916Z,68.70
2018-04-15T13:04:36.194Z,65.23
2018-04-15T13:07:04.500Z,71.10
2018-04-15T13:09:32.781Z,69.30
2018-04-15T13:12:01.965Z,68.70
2018-04-15T13:14:31.033Z,63.57
2018-04-15T13:16:59.483Z,65.33
2018-04-15T13:19:27.731Z,61.60
2018-04-15T13:21:57.018Z,62.90
2018-04-15T13:24:26.075Z,60.87
2018-04-15T13:26:55.273Z,57.33
2018-04-15T13:29:23.560Z,56.53
2018-04-15T13:31:51.834Z,60.30
2018-04-15T13:34:20.316Z,58.50
2018-04-15T13:36:48.596Z,60.50
2018-04-15T13:39:18.195Z,58.75
2018-04-15T13:41:46.493Z,55.77
2018-04-15T13:44:15.554Z,55.00
2018-04-15T13:46:43.865Z,50.73
2018-04-15T13:49:12.144Z,45.73
2018-04-15T13:51:41.250Z,46.37
2018-04-15T13:54:10.304Z,46.63
2018-04-15T13:56:38.598Z,51.47
2018-04-15T13:59:06.974Z,57.20
2018-04-15T14:01:35.292Z,50.40
2018-04-15T14:04:04.310Z,50.57
2018-04-15T14:06:32.663Z,53.13
2018-04-15T14:09:00.957Z,48.53
2018-04-15T14:11:29.300Z,49.60
2018-04-15T14:13:58.325Z,49.83
2018-04-15T14:16:26.637Z,48.10
2018-04-15T14:18:55.748Z,48.73
2018-04-15T14:21:24.071Z,46.93
2018-04-15T14:23:52.327Z,45.83
2018-04-15T14:26:21.980Z,49.07
2018-04-15T14:28:50.292Z,50.23
2018-04-15T14:31:18.581Z,46.27
2018-04-15T14:33:47.645Z,46.43
2018-04-15T14:36:15.922Z,49.90
2018-04-15T14:41:19.845Z,48.93
2018-04-15T14:43:48.149Z,49.03
2018-04-15T14:46:16.450Z,48.93
2018-04-15T14:48:44.761Z,48.60
2018-04-15T14:51:13.053Z,47.70
2018-04-15T14:53:41.401Z,43.57
2018-04-15T14:56:09.683Z,41.85
2018-04-15T14:58:38.011Z,42.50
2018-04-15T15:01:06.409Z,43.30
2018-04-15T15:03:34.709Z,39.83
2018-04-15T15:06:02.995Z,42.35
2018-04-15T15:08:31.334Z,42.33
2018-04-15T15:11:00.363Z,42.70
2018-04-15T15:13:28.808Z,43.42
2018-04-15T15:15:57.177Z,41.07
2018-04-15T15:18:26.204Z,43.10
2018-04-15T15:20:54.469Z,41.50
2018-04-15T15:23:22.774Z,42.63
2018-04-15T15:25:51.973Z,44.83
2018-04-15T15:28:20.404Z,40.33
2018-04-15T15:30:48.625Z,41.00
2018-04-15T15:33:16.952Z,41.67
2018-04-15T15:35:45.975Z,40.73
2018-04-15T15:38:14.293Z,41.92
2018-04-15T15:40:42.702Z,44.13
2018-04-15T15:43:12.705Z,44.70
2018-04-15T15:45:40.995Z,43.97
2018-04-15T15:48:10.150Z,43.80
2018-04-15T15:50:38.401Z,42.70
2018-04-15T15:53:06.709Z,39.37
2018-04-15T15:55:35.011Z,39.20
2018-04-15T15:58:03.368Z,38.23
2018-04-15T16:00:31.780Z,37.23
2018-04-15T16:03:00.877Z,38.93
2018-04-15T16:05:29.933Z,40.43
2018-04-15T16:07:58.223Z,37.17
2018-04-15T16:10:27.717Z,40.93
2018-04-15T16:12:56.013Z,40.77
2018-04-15T16:15:25.101Z,47.60
2018-04-15T16:17:54.172Z,44.10
2018-04-15T16:20:23.256Z,45.17
2018-04-15T16:22:52.615Z,45.63
2018-04-15T16:25:22.431Z,47.20
2018-04-15T16:27:51.536Z,49.73
2018-04-15T16:30:19.842Z,46.23
2018-04-15T16:32:49.366Z,47.77
2018-04-15T16:35:17.657Z,44.13
2018-04-15T16:37:45.958Z,47.33
2018-04-15T16:40:16.273Z,44.60
2018-04-15T16:42:45.332Z,46.08
2018-04-15T16:45:14.365Z,47.30
2018-04-15T16:47:43.454Z,49.73
2018-04-15T16:50:11.725Z,50.63
2018-04-15T16:52:40.793Z,49.80
2018-04-15T16:55:09.114Z,51.23
2018-04-15T16:57:37.391Z,51.17
2018-04-15T17:00:05.742Z,52.33
2018-04-15T17:02:34.000Z,53.60
2018-04-15T17:05:02.301Z,57.73
2018-04-15T17:07:32.641Z,57.07
2018-04-15T17:10:01.719Z,55.07
2018-04-15T17:12:30.028Z,56.93
2018-04-15T17:14:59.024Z,54.17
2018-04-15T17:17:27.351Z,54.57
2018-04-15T17:19:55.730Z,51.87
2018-04-15T17:22:24.037Z,53.30
2018-04-15T17:24:53.116Z,47.90
2018-04-15T17:27:21.428Z,51.03
2018-04-15T17:29:49.808Z,49.77
2018-04-15T17:32:19.385Z,51.60
2018-04-15T17:34:48.890Z,52.73
2018-04-15T17:37:17.973Z,49.37
2018-04-15T17:39:46.391Z,51.43
2018-04-15T17:42:15.626Z,49.17
2018-04-15T17:44:43.884Z,52.00
2018-04-15T17:47:12.175Z,49.47
2018-04-15T17:49:40.510Z,49.50
2018-04-15T17:52:09.662Z,46.27
2018-04-15T17:54:37.961Z,49.40
2018-04-15T17:57:07.556Z,49.17
2018-04-15T17:59:36.484Z,51.03
2018-04-15T18:02:05.570Z,47.97
2018-04-15T18:04:34.609Z,44.63
2018-04-15T18:07:02.906Z,46.57
2018-04-15T18:09:31.204Z,46.60
2018-04-15T18:12:00.225Z,45.63
2018-04-15T18:14:29.667Z,45.47
2018-04-15T18:16:57.952Z,51.87
2018-04-15T18:19:27.108Z,45.50
2018-04-15T18:21:55.846Z,50.30
2018-04-15T18:24:24.333Z,52.20
2018-04-15T18:26:53.769Z,50.23
2018-04-15T18:29:22.064Z,50.90
2018-04-15T18:31:50.411Z,53.93
2018-04-15T18:34:20.393Z,52.13
2018-04-15T18:36:49.562Z,53.53
2018-04-15T18:39:18.634Z,49.20
2018-04-15T18:41:46.967Z,46.00
2018-04-15T18:44:15.270Z,45.33
2018-04-15T18:46:44.353Z,47.47
2018-04-15T18:49:13.429Z,48.87
2018-04-15T18:51:43.853Z,48.07
2018-04-15T18:54:12.539Z,48.00
2018-04-15T18:56:40.847Z,45.43
2018-04-15T18:59:10.016Z,49.73
2018-04-15T19:01:38.409Z,50.90
2018-04-15T19:04:06.726Z,48.00
2018-04-15T19:06:35.041Z,46.23
2018-04-15T19:09:04.108Z,47.60
2018-04-15T19:11:32.394Z,44.17
2018-04-15T19:14:00.701Z,45.08
2018-04-15T19:16:29.081Z,42.63
2018-04-15T19:18:57.468Z,45.70
2018-04-15T19:21:25.750Z,42.47
2018-04-15T19:23:54.881Z,49.77
2018-04-15T19:26:23.269Z,50.10
2018-04-15T19:28:52.600Z,51.30
2018-04-15T19:31:20.976Z,49.33
2018-04-15T19:33:49.244Z,52.73
2018-04-15T19:36:17.581Z,53.13
2018-04-15T19:38:46.013Z,54.80
2018-04-15T19:41:14.405Z,55.97
2018-04-15T19:43:43.525Z,48.97
2018-04-15T19:46:12.590Z,56.93
2018-04-15T19:48:40.878Z,49.17
2018-04-15T19:51:10.555Z,50.97
2018-04-15T19:53:38.834Z,51.73
2018-04-15T19:56:07.155Z,48.27
2018-04-15T19:58:35.496Z,46.58
2018-04-15T20:01:03.852Z,50.27
2018-04-15T20:03:32.187Z,46.60
2018-04-15T20:06:00.491Z,46.57
2018-04-15T20:08:28.774Z,53.17
2018-04-15T20:10:57.104Z,54.77
2018-04-15T20:13:26.188Z,45.90
2018-04-15T20:15:56.088Z,50.27
2018-04-15T20:18:24.436Z,46.77
2018-04-15T20:20:52.826Z,48.03
2018-04-15T20:23:21.144Z,52.23
2018-04-15T20:25:51.150Z,46.00
2018-04-15T20:28:20.858Z,47.67
2018-04-15T20:30:49.162Z,52.77
2018-04-15T20:33:18.204Z,54.97
2018-04-15T20:35:46.498Z,54.13
2018-04-15T20:38:14.813Z,56.27
2018-04-15T20:40:43.158Z,54.40
2018-04-15T20:43:11.618Z,51.57
2018-04-15T20:45:39.893Z,56.73
2018-04-15T20:48:08.230Z,51.23
2018-04-15T20:50:37.304Z,55.70
2018-04-15T20:53:05.660Z,61.13
2018-04-15T20:55:33.986Z,59.00
2018-04-15T20:58:02.324Z,60.50
2018-04-15T21:00:30.646Z,62.53
2018-04-15T21:03:00.270Z,58.33
2018-04-15T21:05:28.590Z,58.43
2018-04-15T21:07:56.958Z,60.33
2018-04-15T21:10:25.273Z,59.33
2018-04-15T21:12:54.319Z,59.70
2018-04-15T21:15:22.692Z,59.33
2018-04-15T21:17:50.972Z,56.60
2018-04-15T21:20:19.491Z,58.20
2018-04-15T21:22:48.561Z,60.50
2018-04-15T21:25:16.843Z,60.00
2018-04-15T21:27:45.887Z,58.60
2018-04-15T21:30:14.141Z,67.10
2018-04-15T21:32:42.445Z,64.83
2018-04-15T21:35:10.761Z,65.27
2018-04-15T21:37:39.820Z,62.77
2018-04-15T21:40:08.116Z,72.33
2018-04-15T21:42:36.384Z,72.97
2018-04-15T21:45:04.653Z,68.85
2018-04-15T21:47:32.974Z,72.20
2018-04-15T21:50:02.042Z,70.35
2018-04-15T21:52:30.354Z,66.50
2018-04-15T21:54:59.397Z,69.07
2018-04-15T21:57:27.693Z,76.70
2018-04-15T21:59:55.990Z,72.10
2018-04-15T22:02:24.447Z,74.27
2018-04-15T22:04:52.747Z,74.30
2018-04-15T22:07:21.806Z,80.12
2018-04-15T22:09:50.087Z,76.07
2018-04-15T22:12:19.395Z,77.20
2018-04-15T22:14:47.678Z,65.33
2018-04-15T22:17:15.937Z,74.07
2018-04-15T22:19:44.245Z,81.90
2018-04-15T22:22:13.312Z,84.50
2018-04-15T22:24:41.644Z,80.43
2018-04-15T22:27:09.919Z,79.67
2018-04-15T22:29:38.196Z,88.30
2018-04-15T22:32:06.552Z,88.33
2018-04-15T22:34:34.773Z,83.77
2018-04-15T22:37:03.072Z,88.57
2018-04-15T22:39:31.348Z,84.93
2018-04-15T22:41:59.624Z,90.07
2018-04-15T22:44:27.900Z,93.87
2018-04-15T22:46:56.169Z,92.83
2018-04-15T22:49:24.468Z,88.80
2018-04-15T22:51:52.729Z,91.03
2018-04-15T22:54:21.005Z,78.90
2018-04-15T22:56:49.272Z,76.50
2018-04-15T22:59:18.323Z,96.27
2018-04-15T23:01:47.352Z,69.50
2018-04-15T23:04:16.767Z,71.17
2018-04-15T23:06:45.040Z,87.27
2018-04-15T23:09:13.310Z,103.70
2018-04-15T23:11:41.550Z,106.77
2018-04-15T23:14:09.842Z,92.23
2018-04-15T23:16:38.145Z,116.27
2018-04-15T23:19:06.404Z,126.83
2018-04-15T23:21:34.710Z,125.07
2018-04-15T23:24:02.997Z,101.03
2018-04-15T23:26:31.782Z,119.15
2018-04-15T23:29:00.073Z,128.43
2018-04-15T23:31:29.182Z,135.13
2018-04-15T23:33:57.467Z,132.33
2018-04-15T23:36:25.792Z,124.63
2018-04-15T23:38:54.074Z,132.20
2018-04-15T23:41:22.348Z,135.63
2018-04-15T23:43:50.621Z,131.27
2018-04-15T23:46:19.833Z,138.37
2018-04-15T23:48:48.183Z,140.33
2018-04-15T23:51:16.447Z,132.20
2018-04-15T23:53:48.378Z,152.23
2018-04-15T23:56:17.050Z,129.57
2018-04-15T23:58:46.130Z,145.67
